Time;durP1;ratioP1;P1;durP2;ratioP2;P2;SDS_P1;SDS_P2;PMS_P1;PMS_P2;Temp;Humidity;BMP_temperature;BMP_pressure;BME280_temperature;BME280_humidity;BME280_pressure;Samples;Min_cycle;Max_cycle;Signal;HPM_P1;HPM_P2
2021/08/15 08:56:59;;;;;;;11.63;6.07;;;25.90;90.10;;;;;;12169040;27;20818;-61
2021/08/15 09:02:47;;;;;;;12.35;6.63;;;26.10;88.80;;;;;;12163863;27;20050;-61
2021/08/15 09:08:34;;;;;;;13.93;6.53;;;26.20;87.60;;;;;;12165071;27;20047;-64
2021/08/15 09:14:23;;;;;;;18.45;7.57;;;26.20;88.50;;;;;;12167249;27;20076;-61
2021/08/15 09:20:13;;;;;;;12.50;6.55;;;26.30;87.70;;;;;;12171581;27;20058;-61
2021/08/15 09:26:14;;;;;;;12.27;6.50;;;26.40;88.90;;;;;;12169758;27;20046;-62
2021/08/15 09:32:03;;;;;;;19.05;6.85;;;26.50;88.90;;;;;;12168143;27;20046;-61
2021/08/15 09:37:56;;;;;;;17.48;7.15;;;26.50;89.20;;;;;;12174120;27;20051;-62
2021/08/15 09:43:43;;;;;;;11.60;7.13;;;26.50;89.80;;;;;;12170582;27;20085;-62
2021/08/15 09:49:40;;;;;;;11.88;7.03;;;26.70;89.30;;;;;;12203142;27;20046;-62
2021/08/15 09:55:45;;;;;;;11.35;6.50;;;26.80;88.70;;;;;;12173638;27;20043;-63
2021/08/15 10:01:32;;;;;;;15.38;5.90;;;26.70;87.60;;;;;;12167581;27;20046;-63
2021/08/15 10:07:20;;;;;;;9.43;5.90;;;26.80;86.20;;;;;;12144364;27;20097;-63
2021/08/15 10:13:08;;;;;;;10.52;5.93;;;26.80;84.60;;;;;;12138953;27;20040;-63
2021/08/15 10:18:57;;;;;;;13.38;5.70;;;27.10;84.90;;;;;;12139075;27;20039;-62
2021/08/15 10:24:47;;;;;;;9.32;5.20;;;27.20;83.30;;;;;;12136898;27;20058;-63
2021/08/15 10:30:47;;;;;;;8.98;5.40;;;27.40;79.70;;;;;;12133354;27;20059;-63
2021/08/15 10:36:34;;;;;;;10.40;5.15;;;27.70;80.40;;;;;;12138068;27;20480;-63
2021/08/15 10:42:47;;;;;;;11.10;5.35;;;27.80;77.30;;;;;;12138943;27;20051;-63
2021/08/15 10:48:51;;;;;;;8.05;4.68;;;27.90;77.10;;;;;;12140843;27;20039;-62
2021/08/15 10:54:59;;;;;;;14.50;5.20;;;28.00;76.80;;;;;;12136563;27;20515;-61
2021/08/15 11:00:49;;;;;;;14.52;4.72;;;28.10;75.80;;;;;;12136354;27;20486;-70
2021/08/15 11:06:50;;;;;;;6.82;4.97;;;28.30;76.40;;;;;;12133972;27;20043;-61
2021/08/15 11:13:12;;;;;;;8.20;5.15;;;28.40;75.00;;;;;;12136839;27;20403;-65
2021/08/15 11:19:28;;;;;;;10.65;5.03;;;28.60;74.00;;;;;;12137179;27;20058;-64
2021/08/15 11:25:26;;;;;;;10.68;6.00;;;28.50;73.60;;;;;;12136805;27;20040;-66
2021/08/15 11:31:13;;;;;;;14.55;5.50;;;28.70;74.70;;;;;;12136142;27;20043;-62
2021/08/15 11:37:03;;;;;;;8.23;4.97;;;28.90;73.90;;;;;;12132979;27;20062;-59
2021/08/15 11:42:59;;;;;;;7.65;5.03;;;29.00;73.30;;;;;;12136976;27;20096;-61
2021/08/15 11:48:46;;;;;;;9.48;5.00;;;28.90;70.30;;;;;;12136741;27;20059;-62
2021/08/15 11:54:40;;;;;;;10.20;4.78;;;28.90;71.80;;;;;;12133514;27;20569;-60
2021/08/15 12:00:30;;;;;;;14.40;4.80;;;29.20;70.90;;;;;;12131765;27;20040;-66
2021/08/15 12:06:17;;;;;;;9.30;4.72;;;29.30;70.60;;;;;;12130002;27;20058;-66
2021/08/15 12:12:07;;;;;;;9.38;4.80;;;29.20;70.00;;;;;;12129498;27;20047;-67
2021/08/15 12:17:54;;;;;;;8.02;5.47;;;29.20;70.80;;;;;;12134216;27;20655;-66
2021/08/15 12:23:58;;;;;;;11.52;5.07;;;29.40;71.60;;;;;;12131214;27;20434;-61
2021/08/15 12:29:54;;;;;;;8.65;5.50;;;29.10;71.90;;;;;;12130449;27;20055;-67
2021/08/15 12:35:41;;;;;;;9.95;4.85;;;29.20;72.50;;;;;;12129098;27;20542;-59
2021/08/15 12:41:30;;;;;;;9.60;5.43;;;29.30;69.60;;;;;;12131756;27;20046;-60
2021/08/15 12:47:28;;;;;;;8.02;4.85;;;29.30;69.80;;;;;;12131286;27;20048;-61
2021/08/15 12:53:16;;;;;;;8.68;4.55;;;29.70;69.80;;;;;;12132225;28;20058;-60
2021/08/15 12:59:03;;;;;;;7.35;4.57;;;29.80;68.80;;;;;;12131043;28;20044;-60
2021/08/15 13:04:55;;;;;;;7.93;5.00;;;30.10;67.50;;;;;;12130569;28;20422;-60
2021/08/15 13:10:43;;;;;;;7.20;4.75;;;30.20;67.00;;;;;;12127738;28;20147;-60
2021/08/15 13:16:30;;;;;;;7.30;4.85;;;30.00;67.20;;;;;;12128781;28;20044;-61
2021/08/15 13:22:18;;;;;;;9.55;4.80;;;29.60;68.10;;;;;;12123549;28;20109;-61
2021/08/15 13:34:06;;;;;;;12.48;5.10;;;30.00;68.80;;;;;;12160752;28;20047;-61
2021/08/15 13:39:59;;;;;;;7.55;4.95;;;30.00;68.40;;;;;;12163505;28;20039;-60
2021/08/15 13:45:46;;;;;;;;;;;29.80;68.10;;;;;;12170279;28;20112;-61
2021/08/15 13:51:32;;;;;;;11.25;4.63;;;29.90;67.60;;;;;;12164519;27;19927;-60
2021/08/15 13:57:21;;;;;;;8.65;4.63;;;29.90;67.50;;;;;;12141055;27;20070;-60
2021/08/15 14:03:08;;;;;;;9.07;4.65;;;30.10;67.70;;;;;;12134790;27;20055;-60
2021/08/15 14:08:55;;;;;;;10.95;5.30;;;30.00;67.70;;;;;;12139887;27;20206;-60
2021/08/15 14:14:44;;;;;;;13.00;5.20;;;30.20;67.60;;;;;;12138453;27;20100;-59
2021/08/15 14:20:31;;;;;;;9.43;5.68;;;30.10;67.40;;;;;;12134499;27;20052;-61
2021/08/15 14:26:18;;;;;;;11.85;5.15;;;30.30;67.20;;;;;;12162009;27;20058;-63
2021/08/15 14:32:07;;;;;;;8.30;5.05;;;30.10;68.60;;;;;;12166662;28;20589;-64
2021/08/15 14:37:54;;;;;;;8.45;5.07;;;30.50;66.20;;;;;;12164158;27;20537;-63
2021/08/15 14:43:41;;;;;;;8.43;5.00;;;30.70;66.10;;;;;;12167377;27;20122;-62
2021/08/15 14:49:29;;;;;;;10.18;4.85;;;30.80;66.70;;;;;;12167181;27;20047;-62
2021/08/15 14:55:16;;;;;;;8.45;5.15;;;30.80;66.60;;;;;;12136565;27;20426;-63
2021/08/15 15:01:03;;;;;;;17.08;4.82;;;31.10;66.50;;;;;;12132112;27;20043;-63
2021/08/15 15:06:51;;;;;;;13.38;5.78;;;30.80;65.70;;;;;;12129674;27;20032;-61
2021/08/15 15:12:39;;;;;;;13.35;5.13;;;31.20;65.60;;;;;;12128575;27;20044;-64
2021/08/15 15:18:26;;;;;;;16.40;5.20;;;31.10;65.40;;;;;;12129781;27;20079;-64
2021/08/15 15:24:14;;;;;;;14.27;5.38;;;31.30;65.10;;;;;;12127008;27;20816;-64
2021/08/15 15:30:01;;;;;;;11.68;4.88;;;31.30;65.00;;;;;;12129471;27;20066;-63
2021/08/15 15:35:48;;;;;;;11.85;4.97;;;31.30;65.30;;;;;;12131133;27;20112;-61
2021/08/15 15:41:37;;;;;;;8.65;4.30;;;31.40;63.70;;;;;;12128987;27;20063;-63
2021/08/15 15:47:24;;;;;;;9.80;4.90;;;31.40;63.40;;;;;;12129226;27;20039;-62
2021/08/15 15:53:11;;;;;;;7.60;3.90;;;31.40;63.40;;;;;;12123846;27;20055;-63
2021/08/15 15:58:59;;;;;;;11.45;4.03;;;31.30;62.40;;;;;;12128507;27;20036;-63
2021/08/15 16:04:46;;;;;;;10.32;4.00;;;31.00;62.80;;;;;;12127480;27;20051;-63
2021/08/15 16:10:34;;;;;;;11.43;3.78;;;31.60;62.10;;;;;;12126160;27;20423;-63
2021/08/15 16:16:22;;;;;;;12.35;3.95;;;32.50;59.60;;;;;;12127750;27;20086;-64
2021/08/15 16:22:09;;;;;;;11.80;4.40;;;32.90;58.80;;;;;;12124682;27;20044;-63
2021/08/15 16:27:56;;;;;;;13.65;4.20;;;32.00;60.20;;;;;;12122594;27;20787;-61
2021/08/15 16:33:44;;;;;;;12.35;4.13;;;32.50;61.40;;;;;;12122408;27;20043;-64
2021/08/15 16:39:31;;;;;;;10.20;3.97;;;33.00;60.40;;;;;;12129408;27;20052;-63
2021/08/15 16:45:20;;;;;;;18.73;4.53;;;35.20;57.20;;;;;;12124141;27;20450;-61
2021/08/15 16:51:08;;;;;;;10.85;4.05;;;36.90;54.80;;;;;;12126219;27;20104;-61
2021/08/15 16:56:57;;;;;;;6.90;3.70;;;37.70;51.90;;;;;;12125491;28;20058;-64
2021/08/15 17:02:44;;;;;;;9.60;3.78;;;37.90;51.30;;;;;;12127686;28;20044;-64
2021/08/15 17:08:33;;;;;;;7.80;3.70;;;38.90;49.80;;;;;;12128491;28;20044;-64
2021/08/15 17:14:20;;;;;;;6.70;3.70;;;39.20;48.30;;;;;;12127652;27;20039;-62
2021/08/15 17:20:09;;;;;;;8.55;3.92;;;39.60;47.60;;;;;;12138397;27;20043;-62
2021/08/15 17:25:57;;;;;;;11.65;3.72;;;40.40;46.50;;;;;;12139654;27;20471;-62
2021/08/15 17:31:44;;;;;;;7.07;3.88;;;40.10;46.60;;;;;;12134559;27;20056;-62
2021/08/15 17:37:31;;;;;;;5.47;3.67;;;39.70;46.30;;;;;;12131723;27;20044;-62
2021/08/15 17:43:19;;;;;;;10.43;4.15;;;39.60;46.60;;;;;;12135925;27;20047;-62
2021/08/15 17:49:06;;;;;;;10.80;3.95;;;39.10;47.10;;;;;;12134044;27;20043;-61
2021/08/15 17:54:53;;;;;;;5.35;3.80;;;38.90;47.40;;;;;;12128669;27;20060;-62
2021/08/15 18:00:41;;;;;;;9.48;3.78;;;37.30;50.20;;;;;;12135084;27;20055;-62
2021/08/15 18:06:28;;;;;;;12.25;4.35;;;35.50;53.00;;;;;;12131774;27;20471;-62
2021/08/15 18:12:16;;;;;;;11.95;4.60;;;33.90;55.80;;;;;;12130109;27;20044;-62
2021/08/15 18:18:05;;;;;;;7.93;4.18;;;32.60;58.30;;;;;;12135784;27;20036;-62
2021/08/15 18:23:52;;;;;;;12.00;3.97;;;31.60;60.50;;;;;;12134391;27;20119;-62
2021/08/15 18:29:41;;;;;;;7.82;4.03;;;30.70;62.80;;;;;;12133716;27;20043;-62
2021/08/15 18:35:29;;;;;;;12.00;4.55;;;30.20;65.80;;;;;;12135176;27;20050;-62
2021/08/15 18:41:16;;;;;;;6.78;4.47;;;29.70;66.80;;;;;;12133324;27;20048;-62
2021/08/15 18:47:04;;;;;;;7.60;3.97;;;29.30;68.10;;;;;;12135642;27;20048;-62
2021/08/15 18:52:52;;;;;;;8.27;4.40;;;29.00;68.80;;;;;;12131122;27;20485;-63
2021/08/15 18:58:39;;;;;;;8.55;3.97;;;28.60;68.90;;;;;;12134295;27;20039;-63
2021/08/15 19:04:26;;;;;;;6.70;3.67;;;28.00;70.10;;;;;;12135997;27;20062;-63
2021/08/15 19:10:15;;;;;;;5.63;3.47;;;27.60;71.40;;;;;;12129922;27;20419;-63
2021/08/15 19:16:02;;;;;;;10.00;3.83;;;27.30;73.00;;;;;;12129993;27;20054;-63
2021/08/15 19:21:49;;;;;;;11.68;3.45;;;27.10;74.50;;;;;;12131514;27;20052;-60
2021/08/15 19:27:38;;;;;;;9.55;3.00;;;27.00;76.00;;;;;;12130490;27;20066;-61
2021/08/15 19:33:26;;;;;;;6.20;3.42;;;26.70;77.50;;;;;;12130357;27;20051;-61
2021/08/15 19:39:13;;;;;;;5.18;3.53;;;26.60;78.50;;;;;;12129890;27;20545;-61
2021/08/15 19:45:01;;;;;;;5.88;3.17;;;26.70;78.10;;;;;;12125949;27;20051;-60
2021/08/15 19:51:09;;;;;;;;;;;;;;;;;;;;;
2021/08/15 19:57:00;;;;;;;8.70;3.15;;;26.80;78.40;;;;;;12047401;28;20055;-84
2021/08/15 20:02:49;;;;;;;10.27;3.25;;;26.60;78.30;;;;;;12039927;28;20630;-83
2021/08/15 20:08:36;;;;;;;12.18;3.50;;;26.50;78.60;;;;;;12040887;28;20435;-83
2021/08/15 20:14:23;;;;;;;5.32;3.05;;;26.50;78.50;;;;;;12041753;28;20411;-83
2021/08/15 20:20:12;;;;;;;6.65;3.00;;;26.30;78.60;;;;;;12037038;28;20140;-82
2021/08/15 20:26:01;;;;;;;7.13;2.83;;;26.00;79.30;;;;;;12041686;28;20475;-83
2021/08/15 20:31:48;;;;;;;6.60;2.85;;;26.10;79.50;;;;;;12041248;28;20076;-83
2021/08/15 20:37:40;;;;;;;6.78;3.45;;;26.10;79.30;;;;;;12035484;28;20041;-83
2021/08/15 20:43:27;;;;;;;5.47;2.78;;;26.00;79.80;;;;;;12041837;28;20048;-82
2021/08/15 20:49:14;;;;;;;7.78;2.78;;;26.00;79.80;;;;;;12045051;28;20063;-82
2021/08/15 20:55:02;;;;;;;6.90;3.20;;;26.10;79.80;;;;;;12046919;28;20150;-82
2021/08/15 21:00:50;;;;;;;8.27;3.33;;;26.00;79.50;;;;;;12045764;28;20522;-82
2021/08/15 21:06:38;;;;;;;6.55;3.35;;;25.70;79.70;;;;;;12049188;28;20059;-82
2021/08/15 21:12:31;;;;;;;8.57;3.70;;;25.60;79.80;;;;;;12052955;28;20048;-81
2021/08/15 21:18:25;;;;;;;9.93;3.43;;;25.40;79.50;;;;;;12063361;28;20072;-82
2021/08/15 21:24:24;;;;;;;8.43;3.85;;;25.50;79.70;;;;;;12052990;28;20152;-81
2021/08/15 21:30:16;;;;;;;7.20;3.80;;;25.60;79.40;;;;;;12040623;28;20044;-83
2021/08/15 21:36:06;;;;;;;4.65;3.35;;;25.50;79.20;;;;;;12038452;28;20503;-83
2021/08/15 21:41:53;;;;;;;8.15;3.20;;;25.50;79.90;;;;;;12043252;28;20396;-78
2021/08/15 21:47:41;;;;;;;6.82;3.97;;;25.50;80.50;;;;;;12038509;28;21295;-77
2021/08/15 21:53:28;;;;;;;5.18;3.63;;;25.30;80.80;;;;;;12038736;28;20519;-79
2021/08/15 21:59:15;;;;;;;6.63;3.10;;;25.30;81.30;;;;;;12037847;28;20495;-78
2021/08/15 22:05:04;;;;;;;6.43;3.75;;;25.30;81.10;;;;;;12045732;28;20139;-77
2021/08/15 22:10:51;;;;;;;9.02;3.50;;;25.30;80.70;;;;;;12045832;28;20512;-77
2021/08/15 22:16:47;;;;;;;9.43;3.55;;;25.30;81.00;;;;;;12047094;28;20044;-83
2021/08/15 22:22:36;;;;;;;7.20;3.22;;;25.30;81.10;;;;;;12054580;28;20427;-83
2021/08/15 22:28:22;;;;;;;7.53;4.03;;;25.30;81.70;;;;;;12055893;28;20049;-85
2021/08/15 22:34:11;;;;;;;8.45;3.50;;;25.30;80.50;;;;;;12053979;28;20082;-85
2021/08/15 22:40:01;;;;;;;8.75;5.75;;;25.20;81.60;;;;;;12052234;28;20109;-84
2021/08/15 22:45:48;;;;;;;11.75;6.90;;;25.10;81.20;;;;;;12051838;28;20422;-83
2021/08/15 22:51:35;;;;;;;15.05;9.27;;;25.10;81.40;;;;;;12052263;28;20048;-82
2021/08/15 22:57:23;;;;;;;16.15;10.23;;;25.10;81.50;;;;;;12050923;28;20045;-84
2021/08/15 23:03:18;;;;;;;18.35;11.40;;;25.10;81.60;;;;;;12059068;28;20068;-84
2021/08/15 23:09:05;;;;;;;20.88;8.85;;;25.10;82.10;;;;;;12059455;28;20055;-84
2021/08/15 23:14:54;;;;;;;23.52;11.63;;;25.10;82.40;;;;;;12056582;28;20183;-84
2021/08/15 23:20:42;;;;;;;21.02;9.85;;;25.10;82.30;;;;;;12056284;28;20040;-84
2021/08/15 23:26:29;;;;;;;16.80;8.52;;;25.10;82.40;;;;;;12056521;28;20055;-84
2021/08/15 23:32:23;;;;;;;15.18;7.07;;;24.90;82.80;;;;;;12056803;28;20430;-84
2021/08/15 23:38:10;;;;;;;12.77;6.13;;;24.80;82.90;;;;;;12055064;28;20536;-84
2021/08/15 23:43:57;;;;;;;8.52;4.00;;;24.80;82.70;;;;;;12054630;28;20048;-84
2021/08/15 23:49:45;;;;;;;12.27;3.67;;;24.60;82.70;;;;;;12059344;28;20060;-84
2021/08/15 23:55:32;;;;;;;11.15;3.63;;;24.30;82.40;;;;;;12049573;28;20037;-84
